createdAt,value
2019-05-15T00:02:35.558Z,59.05
2019-05-15T00:05:40.447Z,59.84
2019-05-15T00:08:47.887Z,59.00
2019-05-15T00:11:51.984Z,60.24
2019-05-15T00:14:58.101Z,60.43
2019-05-15T00:18:02.912Z,61.30
2019-05-15T00:21:09.301Z,62.12
2019-05-15T00:24:14.295Z,62.98
2019-05-15T00:27:20.237Z,62.80
2019-05-15T00:30:25.148Z,63.33
2019-05-15T00:33:30.262Z,63.37
2019-05-15T00:36:35.010Z,63.50
2019-05-15T00:39:40.026Z,63.30
2019-05-15T00:42:45.003Z,63.70
2019-05-15T00:45:49.763Z,63.06
2019-05-15T00:48:54.830Z,63.96
2019-05-15T00:51:59.996Z,63.43
2019-05-15T00:55:05.229Z,63.05
2019-05-15T00:58:09.985Z,63.41
2019-05-15T01:01:14.782Z,62.96
2019-05-15T01:04:19.878Z,63.34
2019-05-15T01:07:24.611Z,63.38
2019-05-15T01:10:29.393Z,62.57
2019-05-15T01:13:35.119Z,61.22
2019-05-15T01:16:40.192Z,61.72
2019-05-15T01:19:45.279Z,61.86
2019-05-15T01:22:50.338Z,61.42
2019-05-15T01:25:55.407Z,61.67
2019-05-15T01:29:00.582Z,62.10
2019-05-15T01:32:05.460Z,62.32
2019-05-15T01:35:10.620Z,62.21
2019-05-15T01:38:15.462Z,62.35
2019-05-15T01:41:20.547Z,62.26
2019-05-15T01:44:25.589Z,61.94
2019-05-15T01:47:30.689Z,61.97
2019-05-15T01:50:38.409Z,62.17
2019-05-15T01:53:42.950Z,61.72
2019-05-15T01:56:49.513Z,61.62
2019-05-15T01:59:58.316Z,62.14
2019-05-15T02:03:01.645Z,60.96
2019-05-15T02:06:08.252Z,63.48
2019-05-15T02:09:13.296Z,62.52
2019-05-15T02:12:19.159Z,63.00
2019-05-15T02:15:24.237Z,63.54
2019-05-15T02:18:29.252Z,63.55
2019-05-15T02:21:34.006Z,63.51
2019-05-15T02:24:39.220Z,63.26
2019-05-15T02:27:44.262Z,62.72
2019-05-15T02:30:50.381Z,63.69
2019-05-15T02:33:58.793Z,65.41
2019-05-15T02:37:02.709Z,64.70
2019-05-15T02:40:09.926Z,66.09
2019-05-15T02:43:14.614Z,65.82
2019-05-15T02:46:19.957Z,66.20
2019-05-15T02:49:25.677Z,65.71
2019-05-15T02:52:30.751Z,66.47
2019-05-15T02:55:35.761Z,66.02
2019-05-15T02:58:41.864Z,65.18
2019-05-15T03:01:49.316Z,66.16
2019-05-15T03:04:53.697Z,64.63
2019-05-15T03:07:59.575Z,64.54
2019-05-15T03:11:04.830Z,65.46
2019-05-15T03:14:09.655Z,65.49
2019-05-15T03:17:15.106Z,66.30
2019-05-15T03:20:20.139Z,66.90
2019-05-15T03:23:25.079Z,67.75
2019-05-15T03:26:30.136Z,67.25
2019-05-15T03:29:35.343Z,67.45
2019-05-15T03:32:52.465Z,67.88
2019-05-15T03:35:53.655Z,67.97
2019-05-15T03:38:54.191Z,68.28
2019-05-15T03:41:59.310Z,68.16
2019-05-15T03:45:04.552Z,68.91
2019-05-15T03:48:09.813Z,68.49
2019-05-15T03:51:14.967Z,68.92
2019-05-15T03:54:19.783Z,69.25
2019-05-15T03:57:24.544Z,69.67
2019-05-15T04:00:30.274Z,69.73
2019-05-15T04:03:38.808Z,69.57
2019-05-15T04:06:41.972Z,69.63
2019-05-15T04:09:49.338Z,69.67
2019-05-15T04:12:55.082Z,70.08
2019-05-15T04:16:00.538Z,69.88
2019-05-15T04:19:05.286Z,70.55
2019-05-15T04:22:10.099Z,69.80
2019-05-15T04:25:14.903Z,69.46
2019-05-15T04:28:21.233Z,69.62
2019-05-15T04:31:25.962Z,70.85
2019-05-15T04:34:31.099Z,68.78
2019-05-15T04:37:36.234Z,71.28
2019-05-15T04:40:41.657Z,69.05
2019-05-15T04:43:49.396Z,68.84
2019-05-15T04:46:53.649Z,68.88
2019-05-15T04:49:59.169Z,69.37
2019-05-15T04:53:04.170Z,69.96
2019-05-15T04:56:09.793Z,70.54
2019-05-15T04:59:14.980Z,70.24
2019-05-15T05:02:26.695Z,69.84
2019-05-15T05:05:29.309Z,69.73
2019-05-15T05:08:33.602Z,69.01
2019-05-15T05:11:39.317Z,68.00
2019-05-15T05:14:44.465Z,67.46
2019-05-15T05:17:49.627Z,66.66
2019-05-15T05:20:57.689Z,66.22
2019-05-15T05:24:01.324Z,64.86
2019-05-15T05:27:08.680Z,64.39
2019-05-15T05:30:13.389Z,63.39
2019-05-15T05:33:18.679Z,62.33
2019-05-15T05:36:23.649Z,61.02
2019-05-15T05:39:30.266Z,61.54
2019-05-15T05:42:35.365Z,58.65
2019-05-15T05:45:40.458Z,57.10
2019-05-15T05:48:45.281Z,56.05
2019-05-15T05:51:50.135Z,57.01
2019-05-15T05:54:54.953Z,52.96
2019-05-15T05:58:00.159Z,51.12
2019-05-15T06:01:05.074Z,49.32
2019-05-15T06:04:09.892Z,50.08
2019-05-15T06:07:14.743Z,50.14
2019-05-15T06:10:19.724Z,49.94
2019-05-15T06:13:24.554Z,49.90
2019-05-15T06:16:29.314Z,48.29
2019-05-15T06:19:34.375Z,48.29
2019-05-15T06:22:39.170Z,49.37
2019-05-15T06:25:44.285Z,48.66
2019-05-15T06:28:49.363Z,48.70
2019-05-15T06:31:55.136Z,47.93
2019-05-15T06:35:00.257Z,48.25
2019-05-15T06:38:05.078Z,47.55
2019-05-15T06:41:10.221Z,46.61
2019-05-15T06:44:15.330Z,46.63
2019-05-15T06:47:20.521Z,46.01
2019-05-15T06:50:38.290Z,44.77
2019-05-15T06:53:43.286Z,44.31
2019-05-15T06:56:49.278Z,44.50
2019-05-15T06:59:54.261Z,42.78
2019-05-15T07:02:59.469Z,42.45
2019-05-15T07:06:04.304Z,41.94
2019-05-15T07:09:09.640Z,41.38
2019-05-15T07:12:14.721Z,41.49
2019-05-15T07:15:19.929Z,40.35
2019-05-15T07:18:24.712Z,40.34
2019-05-15T07:21:29.821Z,40.08
2019-05-15T07:24:38.343Z,40.40
2019-05-15T07:27:43.523Z,39.77
2019-05-15T07:32:09.455Z,39.97
2019-05-15T07:35:14.920Z,39.82
2019-05-15T07:38:19.764Z,39.42
2019-05-15T07:41:24.731Z,40.11
2019-05-15T07:44:30.777Z,40.10
2019-05-15T07:47:38.319Z,40.98
2019-05-15T07:50:54.157Z,40.23
2019-05-15T07:54:09.147Z,39.86
2019-05-15T07:57:13.325Z,40.28
2019-05-15T08:00:19.288Z,39.94
2019-05-15T08:03:24.097Z,39.63
2019-05-15T08:06:29.202Z,38.88
2019-05-15T08:09:34.415Z,38.62
2019-05-15T08:12:44.889Z,38.31
2019-05-15T08:15:50.563Z,38.42
2019-05-15T08:18:57.855Z,38.68
2019-05-15T08:22:02.817Z,38.57
2019-05-15T08:25:30.082Z,39.43
2019-05-15T08:28:28.303Z,38.87
2019-05-15T08:31:39.008Z,38.65
2019-05-15T08:34:44.432Z,38.20
2019-05-15T08:37:58.101Z,38.44
2019-05-15T08:41:02.776Z,38.68
2019-05-15T08:47:24.911Z,39.46
2019-05-15T08:50:43.876Z,38.61
2019-05-15T08:53:52.976Z,38.33
2019-05-15T08:56:59.727Z,36.02
2019-05-15T09:00:09.881Z,36.63
2019-05-15T09:03:18.322Z,36.71
2019-05-15T09:06:33.492Z,35.14
2019-05-15T09:09:39.444Z,35.79
2019-05-15T09:12:46.616Z,34.13
2019-05-15T09:16:08.266Z,34.03
2019-05-15T09:19:14.429Z,33.51
2019-05-15T09:22:21.649Z,33.35
2019-05-15T09:25:28.994Z,34.63
2019-05-15T09:28:34.442Z,35.41
2019-05-15T09:31:40.242Z,34.58
2019-05-15T09:34:51.799Z,35.03
2019-05-15T09:37:52.057Z,33.76
2019-05-15T09:40:59.506Z,34.08
2019-05-15T09:44:10.294Z,33.31
2019-05-15T09:47:20.582Z,33.14
2019-05-15T09:50:28.089Z,32.73
2019-05-15T09:53:32.795Z,33.28
2019-05-15T09:56:38.570Z,32.79
2019-05-15T09:59:45.448Z,32.08
2019-05-15T10:03:01.648Z,32.60
2019-05-15T10:06:15.260Z,32.01
2019-05-15T10:09:22.552Z,31.83
2019-05-15T10:12:35.137Z,31.71
2019-05-15T10:15:58.789Z,32.06
2019-05-15T10:19:08.969Z,31.63
2019-05-15T10:22:14.505Z,30.88
2019-05-15T10:25:28.034Z,29.36
2019-05-15T10:28:51.434Z,30.31
2019-05-15T10:31:56.416Z,30.62
2019-05-15T10:35:02.262Z,29.28
2019-05-15T10:38:15.047Z,30.04
2019-05-15T10:42:08.219Z,29.85
2019-05-15T10:45:13.991Z,29.33
2019-05-15T10:48:38.626Z,29.08
2019-05-15T11:11:14.264Z,27.50
2019-05-15T11:14:32.222Z,27.78
2019-05-15T11:18:00.663Z,27.63
2019-05-15T11:21:09.560Z,26.95
2019-05-15T11:24:23.280Z,26.95
2019-05-15T11:31:14.995Z,27.71
2019-05-15T11:41:50.216Z,28.40
2019-05-15T11:45:00.857Z,27.50
2019-05-15T11:52:01.263Z,28.28
2019-05-15T11:55:15.509Z,27.93
2019-05-15T11:58:23.060Z,27.29
2019-05-15T12:01:38.474Z,27.82
2019-05-15T12:04:44.054Z,27.82
2019-05-15T12:07:49.671Z,28.51
2019-05-15T12:10:55.111Z,27.73
2019-05-15T12:17:43.100Z,29.31
2019-05-15T12:21:05.483Z,26.76
2019-05-15T12:24:15.882Z,28.03
2019-05-15T12:27:32.479Z,26.82
2019-05-15T12:31:04.635Z,26.88
2019-05-15T12:34:10.664Z,26.26
2019-05-15T12:37:19.303Z,26.96
2019-05-15T12:59:46.859Z,25.94
2019-05-15T13:02:51.598Z,28.65
2019-05-15T13:05:56.673Z,27.70
2019-05-15T13:09:01.485Z,24.69
2019-05-15T13:12:08.545Z,25.51
2019-05-15T13:15:13.559Z,25.61
2019-05-15T13:18:18.726Z,25.26
2019-05-15T13:21:23.767Z,24.23
2019-05-15T13:24:28.889Z,23.72
2019-05-15T13:27:33.647Z,24.17
2019-05-15T13:30:41.566Z,24.35
2019-05-15T13:33:47.982Z,24.81
2019-05-15T13:36:52.327Z,23.97
2019-05-15T13:39:58.713Z,23.48
2019-05-15T13:43:04.876Z,22.76
2019-05-15T13:46:09.804Z,22.53
2019-05-15T13:49:14.888Z,23.64
2019-05-15T13:52:19.659Z,23.50
2019-05-15T13:55:26.285Z,23.23
2019-05-15T13:58:31.569Z,23.82
2019-05-15T14:01:39.101Z,23.20
2019-05-15T14:04:43.208Z,23.57
2019-05-15T14:07:53.177Z,24.84
2019-05-15T14:10:55.608Z,23.80
2019-05-15T14:14:00.463Z,22.94
2019-05-15T14:17:05.326Z,23.77
2019-05-15T14:20:10.663Z,23.98
2019-05-15T14:23:18.445Z,23.91
2019-05-15T14:26:23.966Z,24.24
2019-05-15T14:29:30.211Z,24.03
2019-05-15T14:32:38.891Z,24.38
2019-05-15T14:35:41.956Z,24.45
2019-05-15T14:38:48.485Z,24.75
2019-05-15T14:41:53.955Z,24.66
2019-05-15T14:44:59.407Z,25.30
2019-05-15T14:48:04.535Z,24.67
2019-05-15T14:51:09.574Z,24.29
2019-05-15T14:54:14.362Z,24.70
2019-05-15T14:57:20.204Z,24.90
2019-05-15T15:00:28.986Z,24.53
2019-05-15T15:03:31.965Z,24.16
2019-05-15T15:06:36.803Z,25.43
2019-05-15T15:09:41.581Z,25.72
2019-05-15T15:12:46.340Z,24.70
2019-05-15T15:15:51.110Z,24.29
2019-05-15T15:18:58.404Z,24.92
2019-05-15T15:22:02.716Z,25.08
2019-05-15T15:25:09.500Z,25.29
2019-05-15T15:28:14.851Z,25.58
2019-05-15T15:31:20.145Z,25.24
2019-05-15T15:34:24.883Z,25.69
2019-05-15T15:37:29.665Z,26.36
2019-05-15T15:40:34.610Z,25.84
2019-05-15T15:43:39.870Z,25.90
2019-05-15T15:46:44.667Z,25.10
2019-05-15T15:49:49.497Z,26.13
2019-05-15T15:52:55.158Z,27.28
2019-05-15T15:56:01.212Z,27.47
2019-05-15T15:59:08.596Z,28.13
2019-05-15T16:02:12.906Z,28.61
2019-05-15T16:05:19.026Z,28.93
2019-05-15T16:08:24.622Z,28.91
2019-05-15T16:11:29.637Z,29.17
2019-05-15T16:14:34.502Z,28.50
2019-05-15T16:17:39.241Z,27.58
2019-05-15T16:20:44.072Z,27.62
2019-05-15T16:23:49.106Z,27.43
2019-05-15T16:26:53.864Z,28.09
2019-05-15T16:29:58.894Z,28.39
2019-05-15T16:33:04.006Z,27.55
2019-05-15T16:36:08.953Z,27.34
2019-05-15T16:39:14.082Z,26.48
2019-05-15T16:42:18.913Z,26.27
2019-05-15T16:45:23.858Z,25.99
2019-05-15T16:48:29.487Z,25.35
2019-05-15T16:51:34.655Z,26.17
2019-05-15T16:54:39.515Z,25.71
2019-05-15T16:57:44.346Z,25.85
2019-05-15T17:00:49.799Z,25.70
2019-05-15T17:03:55.107Z,25.82
2019-05-15T17:06:59.913Z,26.04
2019-05-15T17:10:05.075Z,25.75
2019-05-15T17:13:10.048Z,26.40
2019-05-15T17:16:14.956Z,26.52
2019-05-15T17:19:19.815Z,26.03
2019-05-15T17:22:24.643Z,26.25
2019-05-15T17:25:29.887Z,26.59
2019-05-15T17:28:35.115Z,27.25
2019-05-15T17:31:40.563Z,28.01
2019-05-15T17:34:45.445Z,28.27
2019-05-15T17:37:50.883Z,28.35
2019-05-15T17:40:57.714Z,28.77
2019-05-15T17:44:02.155Z,29.56
2019-05-15T17:47:09.690Z,29.63
2019-05-15T17:50:14.019Z,29.95
2019-05-15T17:53:18.756Z,30.61
2019-05-15T17:56:23.786Z,30.94
2019-05-15T17:59:28.978Z,31.07
2019-05-15T18:02:33.828Z,31.46
2019-05-15T18:05:39.324Z,32.07
2019-05-15T18:08:44.166Z,32.08
2019-05-15T18:11:49.430Z,31.97
2019-05-15T18:14:54.723Z,32.81
2019-05-15T18:18:00.119Z,33.18
2019-05-15T18:21:05.543Z,32.99
2019-05-15T18:24:10.664Z,33.34
2019-05-15T18:27:18.354Z,33.25
2019-05-15T18:30:22.754Z,33.13
2019-05-15T18:33:28.789Z,33.32
2019-05-15T18:36:34.548Z,33.20
2019-05-15T18:39:39.635Z,33.73
2019-05-15T18:42:45.818Z,34.30
2019-05-15T18:45:50.687Z,33.28
2019-05-15T18:48:57.580Z,33.45
2019-05-15T18:52:02.104Z,33.61
2019-05-15T18:55:08.195Z,33.52
2019-05-15T18:58:14.011Z,33.77
2019-05-15T19:01:20.923Z,33.50
2019-05-15T19:04:25.963Z,34.06
2019-05-15T19:07:30.749Z,34.24
2019-05-15T19:10:38.411Z,34.70
2019-05-15T19:13:43.194Z,34.51
2019-05-15T19:16:48.585Z,34.59
2019-05-15T19:19:53.771Z,34.77
2019-05-15T19:22:59.096Z,34.94
2019-05-15T19:26:04.094Z,34.76
2019-05-15T19:29:09.201Z,35.02
2019-05-15T19:32:14.438Z,35.21
2019-05-15T19:35:19.664Z,35.16
2019-05-15T19:38:27.816Z,35.29
2019-05-15T19:41:32.283Z,35.74
2019-05-15T19:44:37.801Z,35.73
2019-05-15T19:47:42.693Z,35.67
2019-05-15T19:50:48.211Z,36.17
2019-05-15T19:53:53.370Z,36.92
2019-05-15T19:56:58.633Z,37.15
2019-05-15T20:00:03.976Z,37.35
2019-05-15T20:03:10.479Z,37.32
2019-05-15T20:06:15.461Z,37.38
2019-05-15T20:09:20.586Z,37.75
2019-05-15T20:12:27.775Z,37.79
2019-05-15T20:15:32.155Z,38.11
2019-05-15T20:18:38.594Z,38.18
2019-05-15T20:21:44.440Z,38.58
2019-05-15T20:24:49.710Z,38.71
2019-05-15T20:27:55.071Z,39.06
2019-05-15T20:31:01.655Z,39.03
2019-05-15T20:34:09.205Z,39.01
2019-05-15T20:37:13.641Z,38.93
2019-05-15T20:40:18.619Z,39.23
2019-05-15T20:43:23.806Z,39.43
2019-05-15T20:46:29.062Z,39.76
2019-05-15T20:49:35.029Z,39.70
2019-05-15T20:52:40.176Z,39.39
2019-05-15T20:55:45.349Z,39.95
2019-05-15T20:58:50.398Z,40.21
2019-05-15T21:01:55.200Z,40.34
2019-05-15T21:05:00.692Z,40.11
2019-05-15T21:08:06.167Z,40.40
2019-05-15T21:11:12.201Z,40.53
2019-05-15T21:14:17.296Z,40.90
2019-05-15T21:17:22.255Z,40.74
2019-05-15T21:20:28.798Z,40.99
2019-05-15T21:23:33.753Z,40.80
2019-05-15T21:26:38.574Z,41.00
2019-05-15T21:29:43.688Z,40.97
2019-05-15T21:32:49.374Z,41.61
2019-05-15T21:35:54.692Z,41.47
2019-05-15T21:38:59.873Z,41.38
2019-05-15T21:42:04.987Z,41.36
2019-05-15T21:45:14.546Z,41.47
2019-05-15T21:48:18.611Z,41.86
2019-05-15T21:51:23.726Z,41.52
2019-05-15T21:54:28.641Z,41.28
2019-05-15T21:57:36.704Z,41.93
2019-05-15T22:00:44.099Z,41.49
2019-05-15T22:03:49.428Z,41.34
2019-05-15T22:06:54.279Z,41.53
2019-05-15T22:09:59.024Z,41.73
2019-05-15T22:13:04.944Z,41.90
2019-05-15T22:16:10.820Z,42.00
2019-05-15T22:19:18.074Z,42.28
2019-05-15T22:22:23.314Z,42.18
2019-05-15T22:25:28.234Z,42.24
2019-05-15T22:28:33.822Z,41.96
2019-05-15T22:31:40.051Z,42.27
2019-05-15T22:34:45.258Z,42.16
2019-05-15T22:37:50.114Z,42.43
2019-05-15T22:40:55.210Z,42.62
2019-05-15T22:44:02.054Z,43.43
2019-05-15T22:47:06.902Z,44.11
2019-05-15T22:50:12.030Z,44.08
2019-05-15T22:53:17.792Z,44.44
2019-05-15T22:56:22.706Z,44.74
2019-05-15T22:59:28.372Z,44.79
2019-05-15T23:02:33.226Z,44.20
2019-05-15T23:05:38.142Z,43.84
2019-05-15T23:08:43.976Z,44.78
2019-05-15T23:11:48.810Z,44.74
2019-05-15T23:14:53.598Z,44.28
2019-05-15T23:17:58.724Z,44.32
2019-05-15T23:21:03.802Z,45.06
2019-05-15T23:24:08.676Z,44.89
2019-05-15T23:27:13.436Z,45.32
2019-05-15T23:30:21.544Z,45.34
2019-05-15T23:33:28.246Z,45.52
2019-05-15T23:36:34.117Z,45.54
2019-05-15T23:39:38.893Z,47.19
2019-05-15T23:42:48.866Z,48.25
2019-05-15T23:45:52.731Z,49.00
2019-05-15T23:48:58.813Z,48.46
2019-05-15T23:52:03.695Z,49.66
2019-05-15T23:55:09.181Z,50.37
2019-05-15T23:58:13.991Z,51.25
